UHBB

Ignatyevo

Blagoveschensk, Russian Federation
TAF UHBB 210750Z 2109/2209 36006MPS CAVOK BECMG 2111/2113 29003MPS BECMG 2123/2201 36006MPS
Issued Valid From Valid To
Apr-21 @ 07:50 UTC
(2 hours ago)
Apr-21 @ 09:00 UTC
(46 minutes ago)
Apr-22 @ 09:00 UTC
(in 23 hours)
Apr-21 @ 09:00 to Apr-21 @ 11:00
TAF UHBB 210750Z 2109/2209 36006MPS CAVOK
Wind Visibility Clouds Conditions
360° at 12 knots 10,000+ meters
  • No significant clouds
Becoming Apr-21 @ 11:00 to Apr-21 @ 23:00
BECMG 2111/2113 29003MPS
Wind Visibility Clouds Conditions
290° at 6 knots 10,000+ meters
  • No significant clouds
Becoming Apr-21 @ 23:00 to Apr-22 @ 09:00
BECMG 2123/2201 36006MPS
Wind Visibility Clouds Conditions
360° at 12 knots 10,000+ meters
  • No significant clouds
TAF UHBB 210750Z 2109/2209 36006MPS CAVOK BECMG 2111/2113 29003MPS BECMG 2123/2201 36006MPS
Issued Apr-21 @ 07:50 UTC
(2 hours ago)
Valid From Apr-21 @ 09:00 UTC
(46 minutes ago)
Valid To Apr-22 @ 09:00 UTC
(in 23 hours)
Apr-21 @ 09:00 - Apr-21 @ 11:00
Wind Visibility
360° at 12 knots 10,000+ meters
Clouds
  • No significant clouds
Conditions
Becoming Apr-21 @ 11:00 - Apr-21 @ 23:00
Wind Visibility
290° at 6 knots 10,000+ meters
Clouds
  • No significant clouds
Conditions
Becoming Apr-21 @ 23:00 - Apr-22 @ 09:00
Wind Visibility
360° at 12 knots 10,000+ meters
Clouds
  • No significant clouds
Conditions